createdAt,value
2022-09-12T00:00:52.218Z,19.93
2022-09-12T00:03:18.750Z,20.20
2022-09-12T00:05:47.082Z,19.93
2022-09-12T00:08:14.453Z,20.20
2022-09-12T00:10:42.862Z,18.73
2022-09-12T00:13:10.103Z,19.13
2022-09-12T00:15:44.268Z,19.93
2022-09-12T00:18:15.922Z,18.30
2022-09-12T00:20:47.078Z,18.73
2022-09-12T00:23:14.655Z,19.03
2022-09-12T00:25:45.971Z,19.83
2022-09-12T00:28:14.295Z,19.93
2022-09-12T00:30:43.168Z,19.57
2022-09-12T00:33:10.886Z,19.53
2022-09-12T00:35:53.011Z,19.30
2022-09-12T00:38:21.347Z,20.13
2022-09-12T00:40:48.796Z,18.97
2022-09-12T00:43:33.996Z,18.83
2022-09-12T00:46:13.647Z,18.83
2022-09-12T00:48:46.213Z,18.93
2022-09-12T00:51:14.244Z,18.40
2022-09-12T00:53:44.472Z,19.40
2022-09-12T00:56:13.545Z,19.30
2022-09-12T00:58:45.270Z,18.13
2022-09-12T01:01:12.075Z,19.80
2022-09-12T01:03:38.848Z,20.00
2022-09-12T01:06:05.374Z,20.53
2022-09-12T01:08:34.099Z,19.27
2022-09-12T01:11:01.176Z,19.47
2022-09-12T01:13:28.727Z,19.87
2022-09-12T01:15:56.259Z,21.20
2022-09-12T01:18:32.258Z,21.13
2022-09-12T01:21:20.648Z,20.77
2022-09-12T01:24:22.870Z,20.53
2022-09-12T01:27:20.291Z,21.13
2022-09-12T01:30:02.242Z,20.43
2022-09-12T01:32:54.499Z,19.90
2022-09-12T01:35:33.088Z,20.53
2022-09-12T01:38:11.889Z,21.37
2022-09-12T01:40:58.350Z,19.70
2022-09-12T01:43:45.560Z,20.13
2022-09-12T01:46:24.971Z,21.13
2022-09-12T01:49:07.214Z,21.33
2022-09-12T01:51:45.151Z,21.60
2022-09-12T01:54:22.915Z,21.63
2022-09-12T01:56:53.515Z,21.13
2022-09-12T01:59:29.892Z,20.97
2022-09-12T02:02:15.254Z,21.23
2022-09-12T02:04:52.151Z,20.27
2022-09-12T02:07:24.136Z,20.80
2022-09-12T02:10:18.047Z,20.10
2022-09-12T02:13:00.258Z,18.63
2022-09-12T02:15:38.008Z,19.33
2022-09-12T02:18:06.662Z,19.47
2022-09-12T02:20:48.096Z,18.67
2022-09-12T02:23:26.597Z,19.03
2022-09-12T02:25:58.073Z,19.40
2022-09-12T02:28:38.251Z,19.33
2022-09-12T02:31:23.181Z,18.20
2022-09-12T02:34:31.471Z,17.77
2022-09-12T02:37:06.057Z,16.30
2022-09-12T02:39:33.434Z,19.30
2022-09-12T02:42:03.968Z,17.90
2022-09-12T02:44:33.559Z,18.53
2022-09-12T02:47:24.168Z,17.77
2022-09-12T02:49:51.435Z,18.60
2022-09-12T02:52:18.176Z,17.97
2022-09-12T02:54:45.506Z,18.43
2022-09-12T02:57:22.800Z,16.93
2022-09-12T02:59:52.820Z,18.13
2022-09-12T03:02:28.619Z,17.97
2022-09-12T03:05:11.815Z,18.30
2022-09-12T03:07:53.494Z,18.33
2022-09-12T03:10:37.414Z,18.10
2022-09-12T03:13:03.951Z,17.70
2022-09-12T03:16:12.149Z,18.33
2022-09-12T03:18:55.793Z,17.50
2022-09-12T03:21:37.260Z,18.17
2022-09-12T03:24:16.152Z,17.80
2022-09-12T03:26:57.840Z,18.00
2022-09-12T03:29:25.532Z,17.87
2022-09-12T03:31:55.287Z,17.37
2022-09-12T03:34:23.530Z,17.00
2022-09-12T03:36:50.573Z,16.40
2022-09-12T03:39:17.298Z,18.33
2022-09-12T03:41:44.190Z,17.03
2022-09-12T03:44:10.919Z,16.57
2022-09-12T03:46:37.609Z,16.53
2022-09-12T03:49:04.207Z,17.03
2022-09-12T03:51:31.094Z,15.93
2022-09-12T03:53:57.667Z,16.00
2022-09-12T03:56:24.635Z,16.77
2022-09-12T03:58:51.162Z,17.20
2022-09-12T04:01:19.817Z,16.87
2022-09-12T04:03:49.195Z,15.90
2022-09-12T04:06:18.360Z,15.43
2022-09-12T04:08:48.807Z,15.53
2022-09-12T04:11:15.959Z,16.23
2022-09-12T04:13:44.652Z,15.00
2022-09-12T04:16:12.149Z,14.73
2022-09-12T04:18:38.930Z,16.90
2022-09-12T04:21:07.663Z,15.73
2022-09-12T04:23:35.065Z,16.40
2022-09-12T04:26:04.067Z,16.13
2022-09-12T04:28:30.629Z,16.50
2022-09-12T04:31:03.364Z,16.03
2022-09-12T04:33:29.935Z,15.93
2022-09-12T04:35:56.623Z,15.10
2022-09-12T04:38:23.344Z,15.47
2022-09-12T04:40:49.788Z,15.63
2022-09-12T04:43:16.704Z,15.10
2022-09-12T04:45:43.182Z,15.70
2022-09-12T04:48:09.953Z,16.60
2022-09-12T04:50:36.635Z,14.57
2022-09-12T04:53:03.201Z,14.93
2022-09-12T04:55:30.219Z,14.70
2022-09-12T04:57:56.726Z,14.83
2022-09-12T05:00:23.234Z,15.87
2022-09-12T05:02:49.746Z,15.47
2022-09-12T05:05:17.543Z,15.43
2022-09-12T05:07:44.016Z,15.07
2022-09-12T05:10:10.595Z,14.33
2022-09-12T05:12:37.067Z,14.43
2022-09-12T05:15:04.728Z,14.63
2022-09-12T05:17:31.188Z,14.10
2022-09-12T05:19:57.872Z,14.33
2022-09-12T05:22:24.355Z,14.50
2022-09-12T05:24:50.907Z,13.60
2022-09-12T05:27:17.708Z,15.83
2022-09-12T05:29:44.219Z,14.27
2022-09-12T05:32:12.686Z,13.43
2022-09-12T05:34:40.207Z,14.07
2022-09-12T05:37:06.749Z,12.43
2022-09-12T05:39:33.211Z,13.23
2022-09-12T05:42:00.700Z,13.20
2022-09-12T05:44:28.220Z,12.93
2022-09-12T05:46:54.734Z,12.53
2022-09-12T05:49:21.608Z,12.20
2022-09-12T05:51:48.114Z,12.90
2022-09-12T05:54:18.236Z,12.83
2022-09-12T05:56:45.659Z,12.93
2022-09-12T05:59:17.715Z,13.07
2022-09-12T06:01:44.974Z,12.40
2022-09-12T06:04:12.229Z,12.33
2022-09-12T06:06:47.299Z,11.77
2022-09-12T06:09:16.077Z,12.30
2022-09-12T06:11:43.602Z,12.60
2022-09-12T06:14:14.842Z,11.83
2022-09-12T06:16:41.497Z,11.87
2022-09-12T06:19:14.260Z,11.23
2022-09-12T06:21:40.792Z,11.47
2022-09-12T06:24:09.900Z,11.67
2022-09-12T06:26:37.150Z,11.27
2022-09-12T06:29:04.909Z,11.50
2022-09-12T06:31:36.435Z,10.90
2022-09-12T06:34:05.817Z,12.57
2022-09-12T06:36:36.804Z,10.83
2022-09-12T06:39:10.241Z,11.73
2022-09-12T06:41:40.474Z,11.23
2022-09-12T06:44:14.403Z,10.73
2022-09-12T06:46:41.298Z,11.50
2022-09-12T06:49:08.210Z,10.40
2022-09-12T06:51:36.351Z,11.37
2022-09-12T06:54:03.838Z,9.33
2022-09-12T06:56:30.764Z,8.90
2022-09-12T06:58:58.978Z,9.60
2022-09-12T07:01:31.193Z,10.90
2022-09-12T07:04:00.209Z,9.60
2022-09-12T07:06:32.272Z,9.80
2022-09-12T07:09:01.030Z,9.97
2022-09-12T07:11:31.738Z,10.07
2022-09-12T07:14:01.763Z,9.77
2022-09-12T07:16:29.216Z,9.63
2022-09-12T07:18:59.372Z,9.70
2022-09-12T07:21:27.230Z,10.67
2022-09-12T07:23:57.236Z,9.73
2022-09-12T07:26:25.284Z,10.40
2022-09-12T07:29:07.884Z,9.37
2022-09-12T07:31:42.870Z,9.37
2022-09-12T07:34:09.928Z,9.83
2022-09-12T07:36:36.567Z,9.13
2022-09-12T07:39:03.867Z,9.67
2022-09-12T07:41:33.858Z,8.90
2022-09-12T07:44:02.528Z,8.77
2022-09-12T07:46:30.680Z,9.73
2022-09-12T07:48:59.292Z,8.73
2022-09-12T07:51:27.400Z,9.00
2022-09-12T07:53:54.320Z,9.13
2022-09-12T07:56:22.580Z,8.37
2022-09-12T07:58:50.771Z,8.60
2022-09-12T08:01:19.586Z,8.60
2022-09-12T08:03:48.819Z,9.03
2022-09-12T08:06:20.520Z,8.57
2022-09-12T08:08:48.458Z,9.03
2022-09-12T08:11:17.287Z,8.83
2022-09-12T08:13:45.648Z,9.30
2022-09-12T08:16:21.175Z,9.10
2022-09-12T08:18:48.827Z,8.03
2022-09-12T08:21:29.594Z,9.47
2022-09-12T08:24:01.997Z,9.50
2022-09-12T08:26:29.112Z,9.10
2022-09-12T08:28:55.755Z,9.50
2022-09-12T08:31:25.010Z,8.83
2022-09-12T08:33:51.999Z,8.70
2022-09-12T08:36:24.475Z,8.87
2022-09-12T08:38:59.335Z,9.60
2022-09-12T08:41:39.847Z,9.43
2022-09-12T08:44:43.082Z,9.87
2022-09-12T08:47:28.412Z,8.97
2022-09-12T08:50:01.032Z,8.60
2022-09-12T08:53:11.707Z,8.40
2022-09-12T08:55:38.211Z,7.93
2022-09-12T08:58:14.920Z,9.07
2022-09-12T09:01:20.137Z,8.13
2022-09-12T09:04:05.819Z,8.73
2022-09-12T09:06:54.119Z,9.50
2022-09-12T09:09:20.577Z,7.93
2022-09-12T09:12:12.382Z,8.57
2022-09-12T09:15:03.414Z,8.50
2022-09-12T09:17:44.933Z,9.07
2022-09-12T09:20:23.306Z,8.10
2022-09-12T09:22:54.886Z,7.40
2022-09-12T09:25:25.315Z,7.73
2022-09-12T09:27:58.966Z,7.77
2022-09-12T09:30:25.485Z,8.83
2022-09-12T09:32:59.674Z,8.47
2022-09-12T09:35:41.160Z,8.03
2022-09-12T09:38:32.857Z,8.27
2022-09-12T09:41:11.984Z,8.80
2022-09-12T09:43:39.725Z,7.83
2022-09-12T09:46:07.076Z,7.63
2022-09-12T09:48:37.834Z,8.07
2022-09-12T09:51:07.202Z,7.57
2022-09-12T09:53:46.755Z,7.47
2022-09-12T09:56:34.354Z,6.63
2022-09-12T09:59:12.948Z,6.63
2022-09-12T10:02:14.789Z,7.67
2022-09-12T10:04:55.014Z,7.47
2022-09-12T10:07:22.258Z,6.97
2022-09-12T10:10:05.165Z,6.30
2022-09-12T10:12:31.772Z,7.33
2022-09-12T10:15:03.722Z,7.10
2022-09-12T10:17:43.764Z,6.60
2022-09-12T10:20:32.330Z,6.87
2022-09-12T10:23:37.966Z,6.70
2022-09-12T10:26:10.859Z,5.27
2022-09-12T10:28:42.143Z,4.80
2022-09-12T10:31:14.218Z,5.50
2022-09-12T10:33:54.045Z,5.70
2022-09-12T10:36:21.188Z,4.70
2022-09-12T10:39:01.374Z,5.00
2022-09-12T10:41:37.420Z,4.80
2022-09-12T10:44:17.057Z,5.50
2022-09-12T10:46:44.302Z,4.90
2022-09-12T10:49:21.612Z,5.20
2022-09-12T10:51:48.960Z,4.20
2022-09-12T10:54:18.543Z,4.10
2022-09-12T10:56:57.438Z,3.90
2022-09-12T10:59:27.050Z,4.67
2022-09-12T11:02:26.028Z,4.53
2022-09-12T11:05:22.724Z,4.77
2022-09-12T11:08:03.929Z,3.90
2022-09-12T11:10:42.553Z,4.00
2022-09-12T11:13:25.738Z,3.50
2022-09-12T11:16:01.227Z,3.83
2022-09-12T11:18:52.428Z,3.80
2022-09-12T11:21:45.501Z,3.80
2022-09-12T11:24:21.056Z,3.80
2022-09-12T11:27:29.612Z,3.90
2022-09-12T11:30:06.919Z,3.87
2022-09-12T11:32:55.738Z,3.67
2022-09-12T11:35:30.541Z,3.60
2022-09-12T11:38:31.576Z,4.03
2022-09-12T11:41:06.580Z,3.63
2022-09-12T11:43:38.600Z,3.90
2022-09-12T11:46:34.369Z,4.17
2022-09-12T11:49:09.638Z,4.10
2022-09-12T11:51:43.265Z,3.60
2022-09-12T11:54:19.070Z,3.40
2022-09-12T11:56:47.457Z,3.60
2022-09-12T11:59:50.032Z,3.07
2022-09-12T12:02:27.817Z,2.60
2022-09-12T12:05:23.771Z,3.13
2022-09-12T12:08:00.089Z,3.00
2022-09-12T12:10:36.193Z,2.60
2022-09-12T12:13:16.057Z,2.87
2022-09-12T12:15:52.942Z,3.10
2022-09-12T12:18:24.466Z,3.30
2022-09-12T12:20:52.120Z,3.03
2022-09-12T12:23:24.818Z,3.10
2022-09-12T12:25:55.113Z,2.90
2022-09-12T12:28:50.372Z,2.50
2022-09-12T12:31:18.360Z,2.40
2022-09-12T12:33:44.893Z,2.20
2022-09-12T12:36:34.210Z,2.70
2022-09-12T12:39:48.297Z,2.53
2022-09-12T12:42:36.041Z,2.40
2022-09-12T12:45:08.977Z,1.97
2022-09-12T12:47:38.433Z,2.20
2022-09-12T12:50:16.191Z,2.30
2022-09-12T12:52:50.622Z,2.37
2022-09-12T12:55:26.554Z,2.20
2022-09-12T12:57:55.998Z,1.97
2022-09-12T13:00:25.661Z,2.23
2022-09-12T13:03:07.242Z,1.93
2022-09-12T13:05:46.286Z,2.20
2022-09-12T13:08:18.773Z,2.07
2022-09-12T13:10:54.757Z,2.27
2022-09-12T13:13:32.256Z,2.10
2022-09-12T13:15:58.813Z,2.50
2022-09-12T13:18:34.197Z,2.30
2022-09-12T13:21:12.643Z,2.60
2022-09-12T13:23:39.516Z,2.67
2022-09-12T13:26:21.034Z,2.00
2022-09-12T13:28:47.849Z,2.50
2022-09-12T13:31:26.763Z,2.50
2022-09-12T13:34:04.790Z,2.77
2022-09-12T13:36:50.402Z,2.60
2022-09-12T13:39:29.939Z,2.50
2022-09-12T13:42:15.116Z,2.70
2022-09-12T13:44:55.268Z,2.87
2022-09-12T13:47:34.833Z,2.90
2022-09-12T13:50:03.907Z,2.70
2022-09-12T13:52:33.616Z,2.80
2022-09-12T13:55:02.090Z,2.70
2022-09-12T13:57:33.599Z,2.47
2022-09-12T14:00:03.169Z,2.70
2022-09-12T14:02:31.352Z,2.30
2022-09-12T14:05:10.500Z,2.60
2022-09-12T14:07:44.145Z,2.80
2022-09-12T14:10:18.425Z,2.40
2022-09-12T14:12:50.770Z,2.43
2022-09-12T14:15:23.704Z,2.30
2022-09-12T14:17:52.776Z,2.37
2022-09-12T14:20:23.199Z,2.57
2022-09-12T14:22:53.170Z,2.30
2022-09-12T14:25:23.682Z,2.33
2022-09-12T14:27:55.591Z,2.40
2022-09-12T14:30:31.965Z,2.53
2022-09-12T14:33:10.288Z,2.80
2022-09-12T14:35:48.626Z,2.90
2022-09-12T14:38:24.641Z,3.20
2022-09-12T14:40:59.787Z,2.90
2022-09-12T14:43:36.045Z,3.07
2022-09-12T14:46:06.245Z,2.90
2022-09-12T14:48:43.340Z,2.57
2022-09-12T14:51:21.328Z,2.40
2022-09-12T14:53:49.978Z,2.50
2022-09-12T14:56:17.084Z,3.23
2022-09-12T14:58:43.859Z,2.80
2022-09-12T15:01:10.346Z,2.50
2022-09-12T15:03:57.676Z,2.87
2022-09-12T15:06:36.253Z,2.57
2022-09-12T15:09:07.020Z,2.87
2022-09-12T15:11:33.886Z,2.60
2022-09-12T15:14:08.366Z,2.60
2022-09-12T15:16:34.837Z,2.80
2022-09-12T15:19:01.382Z,3.07
2022-09-12T15:21:28.378Z,2.43
2022-09-12T15:23:55.313Z,2.57
2022-09-12T15:26:27.208Z,2.47
2022-09-12T15:28:55.157Z,2.77
2022-09-12T15:31:24.708Z,2.93
2022-09-12T15:33:51.513Z,2.70
2022-09-12T15:36:20.747Z,2.60
2022-09-12T15:38:48.259Z,3.00
2022-09-12T15:41:28.181Z,2.50
2022-09-12T15:43:54.747Z,2.57
2022-09-12T15:46:21.772Z,2.80
2022-09-12T15:48:48.389Z,2.50
2022-09-12T15:51:20.272Z,2.60
2022-09-12T15:53:48.387Z,2.60
2022-09-12T15:56:17.082Z,2.57
2022-09-12T15:58:57.820Z,2.50
2022-09-12T16:01:26.343Z,2.80
2022-09-12T16:03:52.949Z,2.50
2022-09-12T16:06:19.768Z,2.57
2022-09-12T16:08:46.280Z,2.80
2022-09-12T16:11:24.418Z,2.30
2022-09-12T16:13:55.021Z,2.73
2022-09-12T16:16:22.073Z,2.80
2022-09-12T16:18:49.210Z,2.73
2022-09-12T16:21:16.133Z,2.83
2022-09-12T16:23:44.427Z,2.80
2022-09-12T16:26:11.205Z,2.67
2022-09-12T16:28:38.225Z,2.73
2022-09-12T16:31:07.031Z,2.80
2022-09-12T16:33:34.413Z,2.30
2022-09-12T16:36:04.067Z,2.70
2022-09-12T16:38:31.556Z,2.50
2022-09-12T16:41:06.311Z,2.63
2022-09-12T16:43:34.806Z,2.20
2022-09-12T16:46:26.202Z,2.30
2022-09-12T16:48:54.570Z,2.37
2022-09-12T16:51:27.674Z,2.37
2022-09-12T16:53:55.347Z,2.60
2022-09-12T16:56:22.806Z,2.40
2022-09-12T16:58:49.710Z,2.40
2022-09-12T17:01:22.677Z,2.23
2022-09-12T17:03:53.408Z,2.40
2022-09-12T17:06:20.668Z,2.87
2022-09-12T17:08:49.980Z,3.20
2022-09-12T17:11:22.423Z,2.73
2022-09-12T17:14:09.946Z,2.70
2022-09-12T17:16:42.760Z,2.80
2022-09-12T17:19:16.607Z,2.23
2022-09-12T17:21:44.426Z,2.60
2022-09-12T17:24:11.197Z,2.83
2022-09-12T17:26:37.946Z,2.60
2022-09-12T17:29:05.402Z,2.90
2022-09-12T17:31:32.683Z,2.77
2022-09-12T17:34:00.832Z,2.87
2022-09-12T17:36:28.334Z,2.87
2022-09-12T17:38:55.557Z,3.23
2022-09-12T17:41:25.557Z,3.20
2022-09-12T17:43:56.297Z,3.30
2022-09-12T17:46:25.400Z,3.30
2022-09-12T17:48:56.902Z,3.30
2022-09-12T17:51:25.166Z,3.17
2022-09-12T17:54:06.886Z,3.30
2022-09-12T17:56:34.907Z,3.10
2022-09-12T17:59:02.018Z,2.97
2022-09-12T18:01:48.372Z,2.83
2022-09-12T18:04:15.917Z,3.00
2022-09-12T18:06:47.999Z,3.13
2022-09-12T18:09:18.125Z,3.50
2022-09-12T18:11:45.035Z,3.70
2022-09-12T18:14:14.245Z,4.10
2022-09-12T18:16:41.991Z,3.83
2022-09-12T18:19:08.832Z,4.30
2022-09-12T18:21:35.368Z,4.30
2022-09-12T18:24:03.108Z,3.50
2022-09-12T18:26:31.022Z,3.50
2022-09-12T18:28:57.926Z,3.47
2022-09-12T18:31:27.639Z,3.47
2022-09-12T18:33:54.602Z,3.90
2022-09-12T18:36:21.751Z,4.03
2022-09-12T18:38:49.118Z,3.90
2022-09-12T18:41:21.684Z,3.70
2022-09-12T18:43:49.396Z,3.37
2022-09-12T18:46:19.047Z,3.57
2022-09-12T18:48:46.860Z,3.03
2022-09-12T18:51:17.957Z,3.13
2022-09-12T18:53:53.049Z,3.30
2022-09-12T18:56:20.657Z,3.80
2022-09-12T18:58:52.340Z,3.43
2022-09-12T19:01:31.288Z,3.00
2022-09-12T19:03:58.169Z,3.10
2022-09-12T19:06:30.587Z,3.63
2022-09-12T19:09:00.197Z,4.27
2022-09-12T19:11:29.603Z,3.40
2022-09-12T19:13:56.803Z,3.63
2022-09-12T19:16:25.742Z,4.20
2022-09-12T19:18:53.365Z,3.40
2022-09-12T19:21:22.556Z,3.73
2022-09-12T19:23:49.782Z,3.53
2022-09-12T19:26:17.951Z,3.90
2022-09-12T19:28:45.351Z,3.87
2022-09-12T19:31:14.737Z,4.13
2022-09-12T19:33:42.044Z,4.13
2022-09-12T19:36:33.604Z,4.00
2022-09-12T19:38:59.281Z,3.57
2022-09-12T19:41:26.239Z,4.03
2022-09-12T19:43:52.703Z,3.70
2022-09-12T19:46:21.523Z,3.60
2022-09-12T19:48:48.663Z,4.30
2022-09-12T19:51:16.478Z,4.73
2022-09-12T19:53:43.416Z,4.60
2022-09-12T19:56:11.930Z,4.60
2022-09-12T19:58:44.435Z,5.20
2022-09-12T20:01:19.927Z,4.90
2022-09-12T20:03:46.957Z,4.67
2022-09-12T20:06:17.700Z,4.73
2022-09-12T20:08:44.777Z,4.87
2022-09-12T20:11:14.022Z,4.73
2022-09-12T20:13:41.290Z,4.50
2022-09-12T20:16:21.357Z,4.30
2022-09-12T20:18:52.326Z,4.60
2022-09-12T20:21:20.987Z,4.30
2022-09-12T20:23:47.696Z,4.77
2022-09-12T20:26:14.329Z,4.50
2022-09-12T20:28:41.902Z,4.57
2022-09-12T20:31:14.447Z,4.83
2022-09-12T20:33:41.111Z,4.50
2022-09-12T20:36:13.885Z,4.70
2022-09-12T20:38:41.924Z,4.00
2022-09-12T20:41:10.077Z,4.20
2022-09-12T20:43:38.703Z,3.87
2022-09-12T20:46:12.626Z,4.00
2022-09-12T20:48:39.479Z,4.30
2022-09-12T20:51:07.380Z,4.17
2022-09-12T20:53:35.372Z,4.20
2022-09-12T20:56:03.162Z,4.20
2022-09-12T20:58:29.723Z,4.60
2022-09-12T21:00:56.725Z,3.73
2022-09-12T21:03:23.254Z,3.50
2022-09-12T21:05:49.723Z,4.07
2022-09-12T21:08:16.635Z,3.87
2022-09-12T21:10:44.427Z,3.53
2022-09-12T21:13:12.383Z,3.50
2022-09-12T21:15:39.996Z,3.63
2022-09-12T21:18:06.972Z,3.27
2022-09-12T21:20:34.258Z,3.70
2022-09-12T21:23:00.796Z,3.80
2022-09-12T21:25:29.149Z,3.43
2022-09-12T21:27:55.816Z,3.30
2022-09-12T21:30:22.449Z,3.20
2022-09-12T21:32:49.099Z,3.13
2022-09-12T21:35:15.760Z,3.63
2022-09-12T21:37:42.259Z,3.33
2022-09-12T21:40:09.094Z,3.37
2022-09-12T21:42:35.678Z,3.70
2022-09-12T21:45:02.403Z,3.40
2022-09-12T21:47:29.170Z,3.60
2022-09-12T21:49:55.742Z,3.40
2022-09-12T21:52:22.367Z,3.17
2022-09-12T21:54:48.927Z,3.30
2022-09-12T21:57:15.769Z,3.20
2022-09-12T21:59:42.447Z,3.63
2022-09-12T22:02:10.865Z,3.40
2022-09-12T22:04:37.758Z,4.07
2022-09-12T22:07:05.513Z,3.77
2022-09-12T22:09:32.907Z,3.23
2022-09-12T22:11:59.398Z,3.20
2022-09-12T22:14:26.885Z,3.60
2022-09-12T22:16:53.390Z,3.43
2022-09-12T22:19:20.362Z,3.30
2022-09-12T22:22:05.809Z,3.27
2022-09-12T22:24:32.355Z,3.20
2022-09-12T22:27:01.729Z,3.37
2022-09-12T22:29:28.654Z,3.43
2022-09-12T22:31:55.566Z,3.27
2022-09-12T22:34:22.213Z,3.17
2022-09-12T22:36:49.334Z,3.70
2022-09-12T22:39:16.049Z,3.27
2022-09-12T22:41:42.540Z,3.23
2022-09-12T22:44:10.932Z,3.00
2022-09-12T22:46:38.054Z,3.00
2022-09-12T22:49:06.470Z,3.63
2022-09-12T22:51:33.911Z,3.57
2022-09-12T22:54:00.454Z,3.43
2022-09-12T22:56:27.385Z,3.20
2022-09-12T22:58:54.312Z,3.30
2022-09-12T23:01:20.960Z,3.37
2022-09-12T23:03:47.573Z,3.50
2022-09-12T23:06:14.237Z,3.23
2022-09-12T23:08:40.768Z,3.20
2022-09-12T23:11:10.328Z,3.20
2022-09-12T23:13:37.914Z,3.47
2022-09-12T23:16:06.290Z,3.33
2022-09-12T23:18:36.791Z,3.80
2022-09-12T23:21:06.655Z,3.60
2022-09-12T23:23:34.044Z,3.27
2022-09-12T23:26:11.904Z,3.43
2022-09-12T23:28:40.441Z,3.50
2022-09-12T23:31:09.755Z,3.43
2022-09-12T23:33:36.915Z,3.40
2022-09-12T23:36:11.449Z,3.67
2022-09-12T23:38:38.562Z,3.53
2022-09-12T23:41:05.196Z,3.83
2022-09-12T23:43:31.865Z,3.37
2022-09-12T23:46:00.751Z,3.40
2022-09-12T23:48:28.090Z,3.63
2022-09-12T23:50:54.681Z,3.90
2022-09-12T23:53:21.979Z,3.80
2022-09-12T23:55:49.228Z,3.90
2022-09-12T23:58:16.750Z,3.90
